Time;durP1;ratioP1;P1;durP2;ratioP2;P2;SDS_P1;SDS_P2;PMS_P1;PMS_P2;Temp;Humidity;BMP_temperature;BMP_pressure;BME280_temperature;BME280_humidity;BME280_pressure;Samples;Min_cycle;Max_cycle;Signal;HPM_P1;HPM_P2
2022/04/23 00:02:12;;;;;;;23.43;21.03;;;;;;;;;;5061767;28;20461;-94
2022/04/23 00:05:24;;;;;;;23.07;20.97;;;;;;;;;;5047471;28;20439;-95
2022/04/23 00:08:27;;;;;;;23.80;21.33;;;;;;;;;;5051608;28;20449;-94
2022/04/23 00:11:34;;;;;;;22.30;20.00;;;;;;;;;;5069953;28;20448;-94
2022/04/23 00:14:39;;;;;;;22.10;19.83;;;;;;;;;;5049803;28;20425;-93
2022/04/23 00:17:46;;;;;;;21.33;19.23;;;;;;;;;;5049586;28;21011;-94
2022/04/23 00:20:51;;;;;;;23.20;19.90;;;;;;;;;;5061945;28;20429;-95
2022/04/23 00:23:56;;;;;;;23.37;21.17;;;;;;;;;;5057926;28;20441;-95
2022/04/23 00:27:03;;;;;;;21.33;19.27;;;;;;;;;;5044551;28;20425;-91
2022/04/23 00:30:08;;;;;;;22.43;20.23;;;;;;;;;;5047018;28;20441;-91
2022/04/23 00:33:14;;;;;;;22.43;20.43;;;;;;;;;;5055943;28;20521;-91
2022/04/23 00:36:23;;;;;;;21.30;19.20;;;;;;;;;;5055522;28;20437;-90
2022/04/23 00:39:26;;;;;;;21.53;19.47;;;;;;;;;;5054761;28;20430;-91
2022/04/23 00:42:32;;;;;;;23.13;20.73;;;;;;;;;;5038875;28;20703;-90
2022/04/23 00:45:38;;;;;;;22.10;20.10;;;;;;;;;;5041252;28;20426;-91
2022/04/23 00:48:43;;;;;;;23.70;21.50;;;;;;;;;;5052987;28;20433;-91
2022/04/23 00:51:49;;;;;;;23.40;21.10;;;;;;;;;;5051725;28;20571;-90
2022/04/23 00:54:56;;;;;;;23.30;21.10;;;;;;;;;;5047252;28;20440;-89
2022/04/23 00:58:02;;;;;;;22.73;20.50;;;;;;;;;;5051150;28;20440;-91
2022/04/23 01:01:08;;;;;;;23.50;21.20;;;;;;;;;;5053816;28;20532;-90
2022/04/23 01:04:14;;;;;;;24.40;22.00;;;;;;;;;;5051768;28;21034;-90
2022/04/23 01:07:19;;;;;;;23.77;21.50;;;;;;;;;;5031607;28;20411;-90
2022/04/23 01:10:25;;;;;;;21.20;19.30;;;;;;;;;;5042733;28;20487;-90
2022/04/23 01:13:34;;;;;;;23.00;20.80;;;;;;;;;;5049153;28;20433;-90
2022/04/23 01:16:42;;;;;;;22.33;20.03;;;;;;;;;;5047743;28;20445;-92
2022/04/23 01:19:46;;;;;;;21.23;19.13;;;;;;;;;;5041801;28;20437;-91
2022/04/23 01:22:53;;;;;;;22.00;19.97;;;;;;;;;;5047925;28;20508;-90
2022/04/23 01:25:58;;;;;;;21.57;19.47;;;;;;;;;;5046397;28;20892;-91
2022/04/23 01:29:05;;;;;;;22.30;20.00;;;;;;;;;;5043843;28;20524;-91
2022/04/23 01:32:11;;;;;;;20.23;18.23;;;;;;;;;;5042936;28;20514;-91
2022/04/23 01:35:17;;;;;;;20.07;18.17;;;;;;;;;;5046763;28;20428;-91
2022/04/23 01:38:22;;;;;;;19.27;17.57;;;;;;;;;;5048046;28;20422;-91
2022/04/23 01:41:28;;;;;;;18.47;16.57;;;;;;;;;;5042215;28;20437;-91
2022/04/23 01:44:37;;;;;;;20.57;18.83;;;;;;;;;;5043158;28;20420;-91
2022/04/23 01:47:43;;;;;;;18.33;16.63;;;;;;;;;;5047963;28;20809;-91
2022/04/23 01:50:50;;;;;;;19.93;18.03;;;;;;;;;;5056862;28;20956;-90
2022/04/23 01:53:55;;;;;;;19.67;17.87;;;;;;;;;;5041807;28;20425;-91
2022/04/23 01:57:01;;;;;;;19.50;17.60;;;;;;;;;;5042199;28;20433;-91
2022/04/23 02:00:07;;;;;;;21.93;19.90;;;;;;;;;;5042543;28;20438;-90
2022/04/23 02:03:12;;;;;;;21.47;19.20;;;;;;;;;;5045879;28;20479;-91
2022/04/23 02:06:18;;;;;;;20.63;18.73;;;;;;;;;;5040798;28;20510;-91
2022/04/23 02:09:24;;;;;;;20.47;18.47;;;;;;;;;;5048081;28;20488;-91
2022/04/23 02:12:30;;;;;;;19.40;17.53;;;;;;;;;;5046806;28;20425;-91
2022/04/23 02:15:36;;;;;;;23.40;21.10;;;;;;;;;;5049330;28;20477;-90
2022/04/23 02:18:42;;;;;;;22.63;20.27;;;;;;;;;;5059161;28;20429;-90
2022/04/23 02:21:48;;;;;;;25.20;22.60;;;;;;;;;;5075449;28;20700;-90
2022/04/23 02:24:53;;;;;;;24.53;21.83;;;;;;;;;;5042600;28;20979;-90
2022/04/23 02:28:08;;;;;;;23.20;20.80;;;;;;;;;;5051224;28;20421;-89
2022/04/23 02:31:14;;;;;;;24.93;22.30;;;;;;;;;;5047036;28;20507;-90
2022/04/23 02:34:21;;;;;;;26.60;23.10;;;;;;;;;;5053506;28;20519;-90
2022/04/23 02:37:26;;;;;;;26.60;23.90;;;;;;;;;;5046991;28;20421;-90
2022/04/23 02:40:34;;;;;;;26.47;23.67;;;;;;;;;;5035834;28;20438;-90
2022/04/23 02:43:42;;;;;;;25.23;22.47;;;;;;;;;;5037671;28;20477;-89
2022/04/23 02:46:47;;;;;;;28.10;25.20;;;;;;;;;;5061746;28;20537;-90
2022/04/23 02:49:52;;;;;;;27.83;25.00;;;;;;;;;;5048774;28;20425;-89
2022/04/23 02:53:04;;;;;;;31.20;27.70;;;;;;;;;;5047012;28;20537;-90
2022/04/23 02:56:16;;;;;;;31.77;28.27;;;;;;;;;;5044427;28;20426;-90
2022/04/23 02:59:19;;;;;;;31.87;28.50;;;;;;;;;;5043728;28;20484;-90
2022/04/23 03:02:28;;;;;;;35.67;30.90;;;;;;;;;;5047775;28;20520;-90
2022/04/23 03:05:34;;;;;;;37.67;30.53;;;;;;;;;;5057408;28;20961;-90
2022/04/23 03:08:40;;;;;;;36.73;31.50;;;;;;;;;;5044275;28;20838;-90
2022/04/23 03:11:47;;;;;;;35.83;32.03;;;;;;;;;;5065725;28;20496;-90
2022/04/23 03:14:52;;;;;;;39.40;33.10;;;;;;;;;;5047887;28;20429;-90
2022/04/23 03:18:01;;;;;;;36.13;31.90;;;;;;;;;;5052383;28;20432;-90
2022/04/23 03:21:07;;;;;;;35.40;31.57;;;;;;;;;;5058464;28;20899;-90
2022/04/23 03:24:12;;;;;;;40.80;33.87;;;;;;;;;;5043196;28;21026;-90
2022/04/23 03:27:18;;;;;;;44.73;34.80;;;;;;;;;;5052191;28;20915;-89
2022/04/23 03:30:24;;;;;;;42.50;34.00;;;;;;;;;;5055659;28;21124;-90
2022/04/23 03:33:30;;;;;;;38.80;31.60;;;;;;;;;;5044603;28;20417;-90
2022/04/23 03:36:36;;;;;;;38.77;34.63;;;;;;;;;;5049677;28;20441;-90
2022/04/23 03:39:42;;;;;;;44.70;33.97;;;;;;;;;;5047331;28;20473;-90
2022/04/23 03:42:48;;;;;;;37.23;32.97;;;;;;;;;;5048529;28;20876;-90
2022/04/23 03:45:53;;;;;;;37.90;33.77;;;;;;;;;;5045174;28;20824;-88
2022/04/23 03:48:59;;;;;;;40.37;34.43;;;;;;;;;;5041241;28;20465;-91
2022/04/23 03:52:10;;;;;;;40.80;34.20;;;;;;;;;;5047615;28;20966;-90
2022/04/23 03:55:14;;;;;;;39.50;34.53;;;;;;;;;;5049676;28;20426;-90
2022/04/23 03:58:20;;;;;;;38.67;33.43;;;;;;;;;;5041880;28;20426;-89
2022/04/23 04:01:26;;;;;;;41.20;35.07;;;;;;;;;;5049991;28;20441;-90
2022/04/23 04:04:32;;;;;;;36.10;32.30;;;;;;;;;;5037611;28;20444;-90
2022/04/23 04:07:37;;;;;;;40.40;34.10;;;;;;;;;;5051823;28;20429;-90
2022/04/23 04:10:43;;;;;;;39.07;34.67;;;;;;;;;;5052373;28;20524;-90
2022/04/23 04:13:49;;;;;;;46.00;35.20;;;;;;;;;;5048605;28;20421;-89
2022/04/23 04:16:55;;;;;;;41.20;34.33;;;;;;;;;;5065372;28;20508;-90
2022/04/23 04:20:01;;;;;;;49.33;35.20;;;;;;;;;;5053135;28;20455;-90
2022/04/23 04:23:07;;;;;;;40.87;34.47;;;;;;;;;;5061486;28;20480;-89
2022/04/23 04:26:12;;;;;;;41.63;34.23;;;;;;;;;;5054074;28;20429;-91
2022/04/23 04:29:19;;;;;;;41.03;35.03;;;;;;;;;;5034818;28;20505;-90
2022/04/23 04:32:24;;;;;;;37.90;31.80;;;;;;;;;;5034039;28;20419;-90
2022/04/23 04:35:33;;;;;;;39.67;32.50;;;;;;;;;;5052047;28;20491;-90
2022/04/23 04:38:36;;;;;;;42.10;34.00;;;;;;;;;;5046050;28;20436;-90
2022/04/23 04:41:42;;;;;;;39.30;32.83;;;;;;;;;;5056479;28;20454;-89
2022/04/23 04:44:49;;;;;;;42.20;34.00;;;;;;;;;;5049628;28;20702;-86
2022/04/23 04:47:54;;;;;;;41.30;32.90;;;;;;;;;;5050628;28;20500;-91
2022/04/23 04:51:02;;;;;;;38.37;32.50;;;;;;;;;;5040652;28;20432;-91
2022/04/23 04:54:05;;;;;;;39.40;33.37;;;;;;;;;;5045823;28;20422;-90
2022/04/23 04:57:11;;;;;;;38.83;30.63;;;;;;;;;;5049671;28;20417;-90
2022/04/23 05:00:18;;;;;;;50.47;37.63;;;;;;;;;;5044587;28;20422;-89
2022/04/23 05:03:25;;;;;;;43.17;32.80;;;;;;;;;;5034609;28;21009;-90
2022/04/23 05:06:35;;;;;;;42.90;36.00;;;;;;;;;;5048078;28;20445;-90
2022/04/23 05:09:51;;;;;;;38.00;32.53;;;;;;;;;;5043290;28;20450;-89
2022/04/23 05:12:50;;;;;;;34.53;30.73;;;;;;;;;;5049547;28;20479;-91
2022/04/23 05:15:56;;;;;;;37.80;30.70;;;;;;;;;;5043951;28;20461;-90
2022/04/23 05:19:05;;;;;;;35.03;30.77;;;;;;;;;;5048440;28;20579;-89
2022/04/23 05:22:10;;;;;;;39.03;29.60;;;;;;;;;;5048266;28;20466;-90
2022/04/23 05:25:16;;;;;;;34.50;27.73;;;;;;;;;;5039675;28;20524;-84
2022/04/23 05:28:26;;;;;;;31.70;28.30;;;;;;;;;;5051466;28;20418;-88
2022/04/23 05:31:29;;;;;;;42.73;30.47;;;;;;;;;;5050223;28;20437;-89
2022/04/23 05:34:35;;;;;;;32.93;29.37;;;;;;;;;;5049965;28;20428;-93
2022/04/23 05:37:41;;;;;;;32.13;28.83;;;;;;;;;;5052777;28;20594;-91
2022/04/23 05:40:48;;;;;;;29.80;26.90;;;;;;;;;;5050817;28;20969;-92
2022/04/23 05:43:58;;;;;;;29.63;26.90;;;;;;;;;;5029834;28;20480;-93
2022/04/23 05:47:03;;;;;;;29.47;26.47;;;;;;;;;;5029600;28;20933;-93
2022/04/23 05:50:09;;;;;;;31.30;27.63;;;;;;;;;;5032419;28;20418;-92
2022/04/23 05:53:15;;;;;;;29.97;26.97;;;;;;;;;;5030405;28;20426;-92
2022/04/23 05:56:21;;;;;;;30.50;27.50;;;;;;;;;;5024437;28;20435;-92
2022/04/23 05:59:31;;;;;;;30.73;27.77;;;;;;;;;;5029302;28;20421;-92
2022/04/23 06:02:37;;;;;;;29.57;26.67;;;;;;;;;;5027389;28;20502;-93
2022/04/23 06:05:42;;;;;;;28.50;25.80;;;;;;;;;;5030533;28;20557;-93
2022/04/23 06:08:50;;;;;;;30.37;27.57;;;;;;;;;;5030843;28;20439;-93
2022/04/23 06:11:55;;;;;;;30.03;27.10;;;;;;;;;;4328981;28;10000761;-92
2022/04/23 06:15:01;;;;;;;28.27;25.57;;;;;;;;;;5031140;28;20522;-91
2022/04/23 06:18:07;;;;;;;29.70;26.80;;;;;;;;;;5029222;28;21031;-92
2022/04/23 06:21:13;;;;;;;30.87;28.07;;;;;;;;;;5020865;28;20564;-92
2022/04/23 06:24:19;;;;;;;28.80;26.20;;;;;;;;;;5026987;28;20441;-92
2022/04/23 06:27:28;;;;;;;30.33;27.53;;;;;;;;;;5031439;28;20488;-89
2022/04/23 06:30:30;;;;;;;30.00;27.40;;;;;;;;;;5026511;28;20430;-87
2022/04/23 06:33:42;;;;;;;30.30;27.50;;;;;;;;;;5026275;28;20410;-88
2022/04/23 06:36:45;;;;;;;29.10;26.47;;;;;;;;;;5025818;28;20445;-87
2022/04/23 06:39:51;;;;;;;30.93;28.13;;;;;;;;;;5028005;28;20489;-86
2022/04/23 06:42:57;;;;;;;29.50;27.00;;;;;;;;;;5048055;28;20477;-91
2022/04/23 06:46:05;;;;;;;30.30;27.70;;;;;;;;;;5053131;28;20489;-89
2022/04/23 06:49:11;;;;;;;30.47;27.57;;;;;;;;;;5066028;28;20416;-91
2022/04/23 06:52:20;;;;;;;31.53;28.63;;;;;;;;;;5050887;28;20441;-92
2022/04/23 06:55:52;;;;;;;29.93;27.20;;;;;;;;;;5046572;28;20441;-90
2022/04/23 06:59:08;;;;;;;32.53;29.63;;;;;;;;;;5051124;28;20462;-90
2022/04/23 07:02:02;;;;;;;29.23;26.53;;;;;;;;;;5025328;23;20556;-83
2022/04/23 07:04:29;;;;;;;30.50;27.90;;;;;;;;;;5031803;28;20424;-86
2022/04/23 07:07:01;;;;;;;29.43;27.03;;;;;;;;;;5030634;28;20433;-84
2022/04/23 07:09:27;;;;;;;28.63;26.33;;;;;;;;;;5032071;28;20969;-80
2022/04/23 07:11:53;;;;;;;29.60;26.80;;;;;;;;;;5047433;28;20520;-84
2022/04/23 07:14:43;;;;;;;30.20;27.60;;;;;;;;;;5030251;28;20980;-84
2022/04/23 07:17:10;;;;;;;27.93;25.43;;;;;;;;;;5010133;28;20446;-83
2022/04/23 07:19:43;;;;;;;27.90;25.50;;;;;;;;;;5012466;28;20418;-85
2022/04/23 07:22:25;;;;;;;29.20;26.60;;;;;;;;;;5023369;28;20870;-82
2022/04/23 07:24:51;;;;;;;28.93;26.50;;;;;;;;;;5068201;28;20885;-84
2022/04/23 07:27:20;;;;;;;29.23;26.73;;;;;;;;;;5063672;28;20958;-82
2022/04/23 07:29:56;;;;;;;28.03;25.63;;;;;;;;;;5050145;28;20432;-83
2022/04/23 07:32:22;;;;;;;28.77;26.13;;;;;;;;;;5038084;28;20466;-84
2022/04/23 07:37:38;;;;;;;29.47;26.97;;;;;;;;;;5057327;28;20467;-81
2022/04/23 07:40:07;;;;;;;27.97;25.53;;;;;;;;;;5031747;28;20460;-82
2022/04/23 07:42:38;;;;;;;27.97;25.17;;;;;;;;;;5039207;28;20546;-82
2022/04/23 07:45:16;;;;;;;27.97;25.67;;;;;;;;;;5068236;28;20960;-82
2022/04/23 07:47:42;;;;;;;28.80;26.40;;;;;;;;;;5055049;28;20512;-83
2022/04/23 07:50:11;;;;;;;28.83;26.43;;;;;;;;;;4671029;28;10000222;-83
2022/04/23 07:52:50;;;;;;;;;;;;;;;;;;;;;
2022/04/23 07:55:19;;;;;;;27.33;25.17;;;;;;;;;;5034327;28;20453;-82
2022/04/23 07:57:46;;;;;;;27.53;25.33;;;;;;;;;;5126839;23;20553;-78
2022/04/23 08:00:33;;;;;;;;;;;;;;;;;;;;;
2022/04/23 08:03:08;;;;;;;29.17;26.27;;;;;;;;;;5008416;28;20467;-83
2022/04/23 08:05:45;;;;;;;29.03;26.67;;;;;;;;;;5006707;28;20426;-84
2022/04/23 08:08:19;;;;;;;29.17;26.77;;;;;;;;;;5021684;28;20791;-83
2022/04/23 08:10:47;;;;;;;26.20;24.03;;;;;;;;;;5008064;28;20750;-82
2022/04/23 08:13:14;;;;;;;26.00;24.00;;;;;;;;;;5003305;28;20845;-83
2022/04/23 08:15:42;;;;;;;25.60;23.60;;;;;;;;;;5001736;28;20439;-82
2022/04/23 08:18:23;;;;;;;27.27;24.97;;;;;;;;;;5028078;28;20466;-82
2022/04/23 08:20:49;;;;;;;27.10;24.80;;;;;;;;;;5006686;28;20854;-82
2022/04/23 08:23:17;;;;;;;25.87;23.60;;;;;;;;;;5009380;28;20528;-82
2022/04/23 08:25:47;;;;;;;25.50;23.50;;;;;;;;;;5025603;28;20434;-79
2022/04/23 08:31:25;;;;;;;25.10;23.27;;;;;;;;;;5029774;28;20425;-84
2022/04/23 08:34:06;;;;;;;24.90;22.80;;;;;;;;;;5024561;28;20783;-85
2022/04/23 08:36:59;;;;;;;23.53;21.80;;;;;;;;;;5028180;28;20410;-83
2022/04/23 08:39:33;;;;;;;27.23;25.17;;;;;;;;;;4995766;28;20437;-83
2022/04/23 08:42:00;;;;;;;25.27;23.27;;;;;;;;;;5006783;28;20481;-84
2022/04/23 08:44:26;;;;;;;25.70;23.67;;;;;;;;;;5021625;28;20426;-82
2022/04/23 08:47:04;;;;;;;;;;;;;;;;;;;;;
2022/04/23 08:50:03;;;;;;;19.97;18.27;;;;;;;;;;5016534;28;20411;-83
2022/04/23 08:52:33;;;;;;;20.00;18.50;;;;;;;;;;5001596;28;20411;-84
2022/04/23 08:55:04;;;;;;;18.87;17.47;;;;;;;;;;5023738;28;20838;-84
2022/04/23 08:57:30;;;;;;;18.40;17.10;;;;;;;;;;5028514;28;20465;-82
2022/04/23 08:59:59;;;;;;;19.80;18.30;;;;;;;;;;5025465;28;20481;-82
2022/04/23 09:02:35;;;;;;;18.50;17.17;;;;;;;;;;5025705;28;20899;-85
2022/04/23 09:05:01;;;;;;;17.00;15.90;;;;;;;;;;5022073;28;20449;-82
2022/04/23 09:07:37;;;;;;;18.43;17.23;;;;;;;;;;4993925;28;20470;-81
2022/04/23 09:10:04;;;;;;;17.63;16.37;;;;;;;;;;5025141;28;20533;-76
2022/04/23 09:12:30;;;;;;;17.30;15.90;;;;;;;;;;5024754;28;20438;-80
2022/04/23 09:15:05;;;;;;;16.10;15.00;;;;;;;;;;5008574;28;20555;-81
2022/04/23 09:26:18;;;;;;;15.80;14.60;;;;;;;;;;5028789;28;20442;-80
2022/04/23 09:29:10;;;;;;;15.43;14.33;;;;;;;;;;5028886;28;20433;-81
2022/04/23 09:31:39;;;;;;;16.67;15.37;;;;;;;;;;5025925;28;20414;-83
2022/04/23 09:34:28;;;;;;;16.43;15.10;;;;;;;;;;5028134;28;20941;-82
2022/04/23 09:37:00;;;;;;;16.03;14.90;;;;;;;;;;5008703;28;20441;-82
2022/04/23 09:39:38;;;;;;;15.87;14.67;;;;;;;;;;5025394;28;20969;-77
2022/04/23 09:42:17;;;;;;;15.60;14.50;;;;;;;;;;5026778;28;20466;-77
2022/04/23 09:44:45;;;;;;;13.43;12.40;;;;;;;;;;5006659;28;20509;-86
2022/04/23 09:47:34;;;;;;;14.47;13.43;;;;;;;;;;5009379;28;20434;-81
2022/04/23 09:53:01;;;;;;;13.13;12.27;;;;;;;;;;5016270;28;20428;-81
2022/04/23 09:55:28;;;;;;;14.10;13.10;;;;;;;;;;4683552;28;10000092;-83
2022/04/23 09:57:57;;;;;;;12.77;11.97;;;;;;;;;;5035528;28;20191;-80
2022/04/23 10:00:28;;;;;;;13.40;12.50;;;;;;;;;;5038065;28;20472;-82
2022/04/23 10:03:03;;;;;;;13.93;12.80;;;;;;;;;;5031920;28;20561;-84
2022/04/23 10:05:29;;;;;;;13.33;12.47;;;;;;;;;;5011958;28;20422;-81
2022/04/23 10:08:00;;;;;;;13.37;12.57;;;;;;;;;;5036648;28;20429;-82
2022/04/23 10:10:26;;;;;;;15.23;12.53;;;;;;;;;;5028612;28;21008;-82
2022/04/23 10:12:52;;;;;;;14.60;13.60;;;;;;;;;;5032343;28;20418;-82
2022/04/23 10:15:21;;;;;;;13.30;12.40;;;;;;;;;;5020127;28;20469;-84
2022/04/23 10:17:48;;;;;;;11.67;10.90;;;;;;;;;;5011574;28;20442;-80
2022/04/23 10:20:14;;;;;;;12.90;12.20;;;;;;;;;;5008160;28;20426;-81
2022/04/23 10:22:54;;;;;;;11.87;11.07;;;;;;;;;;5024184;28;20648;-82
2022/04/23 10:25:28;;;;;;;12.03;11.30;;;;;;;;;;5007306;28;20421;-79
2022/04/23 10:27:55;;;;;;;11.53;10.83;;;;;;;;;;5010038;28;20425;-83
2022/04/23 10:30:28;;;;;;;12.83;12.03;;;;;;;;;;5002143;28;20434;-84
2022/04/23 10:32:57;;;;;;;12.10;11.40;;;;;;;;;;5011109;28;20454;-82
2022/04/23 10:35:23;;;;;;;12.07;11.30;;;;;;;;;;5009677;28;20430;-82
2022/04/23 10:37:49;;;;;;;11.00;10.40;;;;;;;;;;5010847;28;21181;-81
2022/04/23 10:40:17;;;;;;;11.10;10.50;;;;;;;;;;5035415;28;20530;-80
2022/04/23 10:43:02;;;;;;;10.97;10.37;;;;;;;;;;5038336;28;20465;-82
2022/04/23 10:45:39;;;;;;;12.23;11.53;;;;;;;;;;5012358;28;20444;-82
2022/04/23 10:48:24;;;;;;;12.57;11.70;;;;;;;;;;5003773;28;20936;-79
2022/04/23 10:51:12;;;;;;;10.40;9.80;;;;;;;;;;5004414;28;20446;-81
2022/04/23 10:54:17;;;;;;;;;;;;;;;;;;;;;
2022/04/23 10:56:50;;;;;;;;;;;;;;;;;;;;;
2022/04/23 10:59:38;;;;;;;13.10;12.27;;;;;;;;;;5021940;28;20465;-85
2022/04/23 11:02:10;;;;;;;11.67;11.07;;;;;;;;;;5007684;28;20477;-78
2022/04/23 11:12:55;;;;;;;11.60;10.90;;;;;;;;;;2375127;23;20532;-81
2022/04/23 11:21:04;;;;;;;11.87;11.00;;;;;;;;;;3116832;23;20473;-78
2022/04/23 11:24:11;;;;;;;11.90;11.20;;;;;;;;;;5032586;28;20488;-83
2022/04/23 11:26:46;;;;;;;12.73;11.90;;;;;;;;;;5045976;28;20991;-82
2022/04/23 11:29:15;;;;;;;13.10;12.30;;;;;;;;;;5056501;28;20444;-80
2022/04/23 11:32:14;;;;;;;13.07;12.27;;;;;;;;;;5041883;28;20601;-81
2022/04/23 11:34:41;;;;;;;12.80;12.00;;;;;;;;;;5051503;28;20504;-79
2022/04/23 11:37:16;;;;;;;14.60;13.70;;;;;;;;;;5035657;28;20437;-79
2022/04/23 11:39:48;;;;;;;14.10;13.10;;;;;;;;;;5029747;28;20409;-83
2022/04/23 11:45:09;;;;;;;15.20;14.10;;;;;;;;;;5043463;28;20455;-83
2022/04/23 11:47:35;;;;;;;13.40;12.60;;;;;;;;;;5042212;28;20464;-83
2022/04/23 11:55:43;;;;;;;14.80;13.50;;;;;;;;;;5043015;28;20536;-82
2022/04/23 12:01:24;;;;;;;13.47;12.57;;;;;;;;;;5027624;28;20425;-83
2022/04/23 12:03:53;;;;;;;15.30;14.20;;;;;;;;;;5034831;28;21034;-78
2022/04/23 12:06:19;;;;;;;15.45;14.40;;;;;;;;;;4679225;28;10000547;-83
2022/04/23 12:09:17;;;;;;;;;;;;;;;;;;;;;
2022/04/23 12:11:59;;;;;;;14.10;13.20;;;;;;;;;;5035655;28;20421;-82
2022/04/23 12:14:25;;;;;;;14.67;13.63;;;;;;;;;;5017455;28;20843;-79
2022/04/23 12:17:06;;;;;;;12.30;11.60;;;;;;;;;;5023023;28;20434;-81
2022/04/23 12:20:01;;;;;;;13.70;12.90;;;;;;;;;;5024894;28;20823;-84
2022/04/23 12:22:38;;;;;;;13.53;12.53;;;;;;;;;;5023616;28;21097;-82
2022/04/23 12:25:11;;;;;;;14.23;13.03;;;;;;;;;;5022718;28;20962;-83
2022/04/23 12:27:56;;;;;;;13.50;12.60;;;;;;;;;;5030811;28;20481;-83
2022/04/23 12:41:58;;;;;;;13.50;12.50;;;;;;;;;;5045408;28;20997;-82
2022/04/23 12:44:25;;;;;;;12.63;11.83;;;;;;;;;;5030140;28;21004;-84
2022/04/23 12:46:59;;;;;;;21.73;19.97;;;;;;;;;;5025647;28;20429;-84
2022/04/23 12:49:35;;;;;;;11.80;11.00;;;;;;;;;;5048318;28;20430;-82
2022/04/23 12:52:01;;;;;;;12.20;11.40;;;;;;;;;;5025062;28;20437;-81
2022/04/23 12:54:27;;;;;;;11.03;10.43;;;;;;;;;;5026900;28;20477;-81
2022/04/23 12:57:01;;;;;;;12.03;11.33;;;;;;;;;;5045390;28;20796;-82
2022/04/23 12:59:30;;;;;;;12.67;11.90;;;;;;;;;;5049200;28;20413;-85
2022/04/23 13:01:56;;;;;;;12.20;11.30;;;;;;;;;;5037476;28;20469;-82
2022/04/23 13:04:23;;;;;;;11.90;11.20;;;;;;;;;;5062258;28;20464;-85
2022/04/23 13:09:33;;;;;;;11.90;11.10;;;;;;;;;;5056141;28;20428;-85
2022/04/23 13:11:59;;;;;;;12.33;11.43;;;;;;;;;;5061848;28;20501;-85
2022/04/23 13:14:26;;;;;;;12.23;11.33;;;;;;;;;;5046850;28;20572;-85
2022/04/23 13:16:51;;;;;;;11.80;11.10;;;;;;;;;;5043728;28;20426;-86
2022/04/23 13:19:19;;;;;;;14.43;13.23;;;;;;;;;;5052928;28;20432;-82
2022/04/23 13:21:45;;;;;;;12.57;11.67;;;;;;;;;;5039636;28;20432;-82
2022/04/23 13:24:12;;;;;;;16.07;14.60;;;;;;;;;;5033799;28;20441;-86
2022/04/23 13:26:48;;;;;;;17.17;15.70;;;;;;;;;;5040773;28;20521;-86
2022/04/23 13:32:09;;;;;;;17.50;16.00;;;;;;;;;;6000300;23;20928;-90
2022/04/23 13:35:16;;;;;;;16.27;15.00;;;;;;;;;;5019546;28;20427;-90
2022/04/23 13:38:21;;;;;;;15.77;14.57;;;;;;;;;;5027771;28;20459;-89
2022/04/23 13:41:27;;;;;;;16.40;14.97;;;;;;;;;;5024271;28;20716;-91
2022/04/23 13:44:39;;;;;;;15.37;14.17;;;;;;;;;;5020287;28;20430;-89
2022/04/23 13:47:42;;;;;;;17.10;15.60;;;;;;;;;;5030729;28;20435;-90
2022/04/23 13:50:48;;;;;;;15.20;14.10;;;;;;;;;;5030240;28;20453;-90
2022/04/23 13:53:54;;;;;;;13.57;12.47;;;;;;;;;;5041791;28;20430;-90
2022/04/23 14:56:33;;;;;;;11.83;10.83;;;;;;;;;;5698550;23;20482;-91
2022/04/23 14:59:41;;;;;;;11.07;10.27;;;;;;;;;;5043351;28;20442;-89
2022/04/23 15:02:53;;;;;;;10.67;9.60;;;;;;;;;;5041932;28;20481;-90
2022/04/23 15:08:30;;;;;;;11.77;10.97;;;;;;;;;;5633985;23;20556;-91
2022/04/23 15:19:22;;;;;;;15.40;14.20;;;;;;;;;;5235958;23;20481;-92
2022/04/23 15:22:36;;;;;;;13.73;12.63;;;;;;;;;;5047854;28;20481;-91
2022/04/23 15:25:57;;;;;;;12.27;11.47;;;;;;;;;;5048966;28;20435;-91
2022/04/23 17:51:15;;;;;;;11.50;10.60;;;;;;;;;;5136619;23;20529;-90
2022/04/23 18:43:40;;;;;;;12.30;11.47;;;;;;;;;;5905554;23;20494;-93
2022/04/23 18:46:46;;;;;;;9.30;8.77;;;;;;;;;;5022041;28;20434;-90
2022/04/23 18:49:35;;;;;;;10.23;9.53;;;;;;;;;;5023075;28;20980;-90
2022/04/23 18:52:02;;;;;;;9.80;9.30;;;;;;;;;;4997584;28;20439;-91
2022/04/23 19:00:08;;;;;;;8.30;7.40;;;;;;;;;;5114639;23;20488;-91
2022/04/23 19:02:37;;;;;;;7.43;7.03;;;;;;;;;;5023403;28;20470;-90
2022/04/23 19:05:06;;;;;;;7.33;6.83;;;;;;;;;;5012183;28;20435;-90
2022/04/23 19:07:34;;;;;;;8.37;7.87;;;;;;;;;;5013272;28;20448;-90
2022/04/23 19:10:05;;;;;;;7.87;7.50;;;;;;;;;;4989110;28;20429;-90
2022/04/23 19:15:29;;;;;;;6.60;6.20;;;;;;;;;;4977839;28;20431;-90
2022/04/23 20:20:56;;;;;;;5.73;5.23;;;;;;;;;;5924640;23;20519;-88
2022/04/23 20:23:26;;;;;;;5.17;4.97;;;;;;;;;;4690088;28;10001772;-91
2022/04/23 20:25:55;;;;;;;11.00;10.00;;;;;;;;;;5008270;28;20450;-92
2022/04/23 20:29:04;;;;;;;5.37;5.20;;;;;;;;;;5009647;28;20432;-93
2022/04/23 20:31:12;;;;;;;5.87;5.60;;;;;;;;;;5021962;28;20432;-91
2022/04/23 20:33:42;;;;;;;7.13;5.97;;;;;;;;;;5094000;23;20480;-83
2022/04/23 20:38:52;;;;;;;6.50;6.13;;;;;;;;;;4991951;28;20450;-82
2022/04/23 20:41:18;;;;;;;6.00;5.70;;;;;;;;;;4978138;28;20412;-81
2022/04/23 20:43:45;;;;;;;6.47;6.07;;;;;;;;;;4999180;28;20498;-82
2022/04/23 20:46:13;;;;;;;5.30;5.10;;;;;;;;;;4984190;28;20546;-83
2022/04/23 20:48:39;;;;;;;6.03;5.73;;;;;;;;;;4982536;28;20466;-82
2022/04/23 20:51:05;;;;;;;5.87;5.47;;;;;;;;;;5005071;28;20427;-82
2022/04/23 20:53:31;;;;;;;4.77;4.47;;;;;;;;;;5002191;28;20443;-82
2022/04/23 20:55:59;;;;;;;6.20;5.80;;;;;;;;;;4981021;28;20441;-82
2022/04/23 20:58:26;;;;;;;6.10;5.70;;;;;;;;;;5001796;28;20481;-82
2022/04/23 21:00:52;;;;;;;5.20;5.00;;;;;;;;;;5005127;28;20439;-82
2022/04/23 21:03:19;;;;;;;5.03;4.83;;;;;;;;;;4988277;28;20489;-82
2022/04/23 21:05:47;;;;;;;5.07;4.97;;;;;;;;;;5001154;28;20472;-83
2022/04/23 21:08:13;;;;;;;5.23;4.83;;;;;;;;;;5007245;28;20550;-82
2022/04/23 21:10:39;;;;;;;4.43;4.30;;;;;;;;;;4999982;28;21108;-83
2022/04/23 21:13:06;;;;;;;4.77;4.67;;;;;;;;;;4999000;28;20499;-82
2022/04/23 21:15:32;;;;;;;7.70;7.20;;;;;;;;;;4993179;28;20444;-81
2022/04/23 21:17:59;;;;;;;5.30;5.10;;;;;;;;;;4632288;28;9999881;-82
2022/04/23 21:20:26;;;;;;;5.73;5.53;;;;;;;;;;4988296;28;20185;-82
2022/04/23 21:22:52;;;;;;;4.77;4.63;;;;;;;;;;4987204;28;20476;-78
2022/04/23 21:25:19;;;;;;;4.80;4.63;;;;;;;;;;5007769;28;20439;-82
2022/04/23 21:27:45;;;;;;;5.50;5.20;;;;;;;;;;4993300;28;20527;-84
2022/04/23 21:30:11;;;;;;;7.07;6.67;;;;;;;;;;5008845;28;20415;-83
2022/04/23 21:32:38;;;;;;;5.10;4.80;;;;;;;;;;5009641;28;20488;-82
2022/04/23 21:35:23;;;;;;;13.80;12.27;;;;;;;;;;5004304;28;20454;-83
2022/04/23 21:37:49;;;;;;;4.63;4.53;;;;;;;;;;4996039;28;20454;-81
2022/04/23 21:40:15;;;;;;;5.30;5.10;;;;;;;;;;5010833;28;20914;-83
2022/04/23 21:45:26;;;;;;;4.77;4.37;;;;;;;;;;4995659;28;20767;-82
2022/04/23 21:47:54;;;;;;;5.00;4.80;;;;;;;;;;5004351;28;20427;-82
2022/04/23 21:50:21;;;;;;;4.80;4.50;;;;;;;;;;4996365;28;20848;-82
2022/04/23 21:52:48;;;;;;;4.33;4.13;;;;;;;;;;4975744;28;20491;-82
2022/04/23 21:55:14;;;;;;;4.83;4.50;;;;;;;;;;5011074;28;20455;-83
2022/04/23 21:57:52;;;;;;;4.73;4.50;;;;;;;;;;4994124;28;20439;-82
2022/04/23 22:00:35;;;;;;;5.40;4.80;;;;;;;;;;4988816;28;20431;-83
2022/04/23 22:03:02;;;;;;;4.57;4.47;;;;;;;;;;4989552;28;20667;-82
2022/04/23 22:05:28;;;;;;;5.30;5.10;;;;;;;;;;4982341;28;20884;-83
2022/04/23 22:07:54;;;;;;;5.77;5.57;;;;;;;;;;4989429;28;20431;-83
2022/04/23 22:10:20;;;;;;;4.17;4.07;;;;;;;;;;4980552;28;20531;-83
2022/04/23 22:12:46;;;;;;;6.17;5.80;;;;;;;;;;4976833;28;20957;-83
2022/04/23 22:15:12;;;;;;;5.33;5.07;;;;;;;;;;4984922;28;20527;-83
2022/04/23 22:17:38;;;;;;;5.57;5.20;;;;;;;;;;4987176;28;20485;-82
2022/04/23 22:20:05;;;;;;;5.53;5.17;;;;;;;;;;5007113;28;20490;-82
2022/04/23 22:22:36;;;;;;;5.03;4.70;;;;;;;;;;4987233;28;20479;-83
2022/04/23 22:25:03;;;;;;;5.47;5.20;;;;;;;;;;5006063;28;20438;-82
2022/04/23 22:27:29;;;;;;;6.53;6.23;;;;;;;;;;4977681;28;20443;-84
2022/04/23 22:29:58;;;;;;;4.97;4.80;;;;;;;;;;5005912;28;20477;-82
2022/04/23 22:32:24;;;;;;;5.10;4.90;;;;;;;;;;4978343;28;20487;-81
2022/04/23 22:34:50;;;;;;;4.53;4.43;;;;;;;;;;4974919;28;20511;-82
2022/04/23 22:37:16;;;;;;;4.60;4.43;;;;;;;;;;4977270;28;20804;-83
2022/04/23 22:39:43;;;;;;;6.73;4.80;;;;;;;;;;5006458;28;20444;-82
2022/04/23 22:42:24;;;;;;;4.23;4.10;;;;;;;;;;4996461;28;20467;-83
2022/04/23 22:44:50;;;;;;;5.77;5.57;;;;;;;;;;5007611;28;20477;-83
2022/04/23 22:47:16;;;;;;;5.20;5.00;;;;;;;;;;4981504;28;20495;-83
2022/04/23 22:49:42;;;;;;;5.03;4.80;;;;;;;;;;4994275;28;20448;-83
2022/04/23 22:52:08;;;;;;;8.40;4.60;;;;;;;;;;5006689;28;20453;-83
2022/04/23 22:54:34;;;;;;;5.07;4.87;;;;;;;;;;5009406;28;20499;-83
2022/04/23 22:57:01;;;;;;;4.97;4.80;;;;;;;;;;5002138;28;20475;-81
2022/04/23 22:59:27;;;;;;;5.63;5.33;;;;;;;;;;5009290;28;20755;-81
2022/04/23 23:01:53;;;;;;;5.20;5.10;;;;;;;;;;4989758;28;20498;-81